Time;durP1;ratioP1;P1;durP2;ratioP2;P2;SDS_P1;SDS_P2;PMS_P1;PMS_P2;Temp;Humidity;BMP_temperature;BMP_pressure;BME280_temperature;BME280_humidity;BME280_pressure;Samples;Min_cycle;Max_cycle;Signal;HPM_P1;HPM_P2
2023/10/18 00:00:36;;;;;;;22.83;16.92;;;9.60;99.90;;;;;;5009371;28;20065;-54
2023/10/18 00:03:02;;;;;;;24.42;16.55;;;9.70;99.90;;;;;;5009504;28;20030;-54
2023/10/18 00:05:29;;;;;;;26.20;19.45;;;9.60;99.90;;;;;;5008277;28;20105;-54
2023/10/18 00:07:59;;;;;;;28.65;19.63;;;9.50;99.90;;;;;;5007381;28;20037;-54
2023/10/18 00:10:27;;;;;;;21.45;14.93;;;8.80;99.90;;;;;;5029062;28;20041;-54
2023/10/18 00:12:53;;;;;;;20.80;15.30;;;8.50;99.90;;;;;;5029005;28;20033;-54
2023/10/18 00:15:20;;;;;;;24.65;12.70;;;8.30;99.90;;;;;;4995944;28;20115;-54
2023/10/18 00:17:46;;;;;;;19.15;14.02;;;;;;;;;;5028923;28;20084;-54
2023/10/18 00:20:16;;;;;;;17.65;13.88;;;;;;;;;;4979992;28;20052;-54
2023/10/18 00:22:44;;;;;;;17.10;12.90;;;;;;;;;;5028866;28;20704;-53
2023/10/18 00:25:11;;;;;;;17.17;11.77;;;;;;;;;;5028824;28;20443;-54
2023/10/18 00:27:38;;;;;;;17.02;11.93;;;;;;;;;;5048362;28;20383;-54
2023/10/18 00:30:07;;;;;;;15.93;12.55;;;;;;;;;;5050990;28;20482;-53
2023/10/18 00:32:34;;;;;;;18.10;13.38;;;;;;;;;;5051008;28;20048;-54
2023/10/18 00:35:00;;;;;;;17.95;13.13;;;;;;;;;;5051083;28;20116;-54
2023/10/18 00:37:26;;;;;;;16.42;13.45;;;;;;;;;;5050957;28;20061;-54
2023/10/18 00:39:53;;;;;;;17.98;13.50;;;;;;;;;;5051143;28;20527;-54
2023/10/18 00:42:28;;;;;;;18.40;13.32;;;;;;;;;;5051157;28;20079;-54
2023/10/18 00:45:01;;;;;;;17.27;12.00;;;;;;;;;;5051295;28;20430;-54
2023/10/18 00:47:28;;;;;;;18.38;13.77;;;7.40;99.90;;;;;;5031973;28;20052;-54
2023/10/18 00:49:54;;;;;;;18.55;13.13;;;7.20;99.90;;;;;;5050932;28;20447;-54
2023/10/18 00:52:23;;;;;;;18.38;14.05;;;7.70;99.90;;;;;;5053910;28;20069;-54
2023/10/18 00:54:50;;;;;;;18.17;13.48;;;7.90;99.90;;;;;;5054946;28;20086;-54
2023/10/18 00:57:20;;;;;;;18.10;14.00;;;8.20;99.90;;;;;;5054983;28;20054;-54
2023/10/18 00:59:49;;;;;;;16.95;12.57;;;8.40;99.90;;;;;;5054858;28;20041;-54
2023/10/18 01:02:19;;;;;;;20.55;12.60;;;8.30;99.90;;;;;;5054923;28;20472;-54
2023/10/18 01:04:46;;;;;;;14.95;12.23;;;8.20;99.90;;;;;;5054968;28;20495;-54
2023/10/18 01:07:15;;;;;;;18.20;12.25;;;8.30;99.90;;;;;;5054989;28;20391;-55
2023/10/18 01:09:53;;;;;;;17.38;13.07;;;8.20;99.90;;;;;;5054622;28;20032;-54
2023/10/18 01:12:20;;;;;;;23.38;14.77;;;8.30;99.90;;;;;;5054626;28;20036;-54
2023/10/18 01:14:46;;;;;;;15.45;13.05;;;8.40;99.90;;;;;;5054587;28;20111;-54
2023/10/18 01:17:15;;;;;;;18.17;13.13;;;8.40;99.90;;;;;;5046429;28;20044;-54
2023/10/18 01:19:41;;;;;;;20.40;14.07;;;8.50;99.90;;;;;;5034601;28;20041;-54
2023/10/18 01:22:07;;;;;;;18.25;13.48;;;8.50;99.90;;;;;;5034934;28;20346;-54
2023/10/18 01:24:34;;;;;;;19.58;13.77;;;8.60;99.90;;;;;;5034566;28;20028;-54
2023/10/18 01:27:04;;;;;;;21.25;14.13;;;8.50;99.90;;;;;;5034442;28;20473;-54
2023/10/18 01:29:31;;;;;;;22.20;15.23;;;8.50;99.90;;;;;;5033075;28;20057;-54
2023/10/18 01:31:57;;;;;;;19.13;14.30;;;8.50;99.90;;;;;;5034548;28;20447;-54
2023/10/18 01:34:25;;;;;;;18.30;14.43;;;8.50;99.90;;;;;;5015380;28;20040;-54
2023/10/18 01:36:52;;;;;;;18.08;15.13;;;8.60;99.90;;;;;;5034542;28;20053;-54
2023/10/18 01:39:18;;;;;;;21.48;14.77;;;8.50;99.90;;;;;;5034351;28;20366;-54
2023/10/18 01:41:53;;;;;;;23.23;16.45;;;8.60;99.90;;;;;;5015381;28;20041;-54
2023/10/18 01:44:28;;;;;;;20.90;15.48;;;8.70;99.90;;;;;;5034340;28;20083;-54
2023/10/18 01:47:06;;;;;;;19.80;15.50;;;8.70;99.90;;;;;;5034980;28;20120;-54
2023/10/18 01:49:34;;;;;;;18.77;14.68;;;8.70;99.90;;;;;;5034469;28;20475;-54
2023/10/18 01:51:59;;;;;;;17.27;13.82;;;8.80;99.90;;;;;;5034688;28;20408;-54
2023/10/18 01:54:25;;;;;;;19.15;13.73;;;8.70;99.90;;;;;;5034902;28;20101;-54
2023/10/18 01:56:57;;;;;;;19.85;13.25;;;8.70;99.90;;;;;;5034616;28;20025;-54
2023/10/18 01:59:27;;;;;;;18.75;14.65;;;8.80;99.90;;;;;;5034881;28;20053;-54
2023/10/18 02:01:54;;;;;;;20.60;14.65;;;8.70;99.90;;;;;;5034615;28;20124;-54
2023/10/18 02:04:25;;;;;;;19.25;13.10;;;8.60;99.90;;;;;;5033723;28;20113;-54
2023/10/18 02:16:56;;;;;;;18.48;12.55;;;8.60;99.90;;;;;;5034815;28;20032;-54
2023/10/18 02:19:22;;;;;;;18.92;13.57;;;8.50;99.90;;;;;;5034453;28;20037;-54
2023/10/18 02:21:48;;;;;;;23.42;13.65;;;8.40;99.90;;;;;;5032912;28;20029;-54
2023/10/18 02:24:14;;;;;;;18.25;13.32;;;8.40;99.90;;;;;;5034293;28;20032;-54
2023/10/18 02:29:35;;;;;;;14.30;12.32;;;8.40;99.90;;;;;;5024838;28;20040;-54
2023/10/18 02:32:11;;;;;;;18.45;12.75;;;8.40;99.90;;;;;;5034089;28;20036;-54
2023/10/18 02:34:38;;;;;;;16.30;12.38;;;8.40;99.90;;;;;;5034118;28;20057;-54
2023/10/18 02:37:04;;;;;;;15.82;12.90;;;8.40;99.90;;;;;;5033965;28;20120;-54
2023/10/18 02:39:34;;;;;;;17.50;13.27;;;8.40;99.90;;;;;;5033806;28;20399;-54
2023/10/18 02:42:00;;;;;;;17.27;12.00;;;8.40;99.90;;;;;;5033796;28;20033;-54
2023/10/18 02:44:29;;;;;;;16.73;12.80;;;8.30;99.90;;;;;;5033862;28;20105;-54
2023/10/18 02:47:04;;;;;;;17.23;13.13;;;8.30;99.90;;;;;;5033645;28;20393;-54
2023/10/18 02:49:29;;;;;;;17.98;13.05;;;8.30;99.90;;;;;;5033611;28;20090;-54
2023/10/18 02:51:57;;;;;;;18.92;13.55;;;8.30;99.90;;;;;;5033853;28;20056;-54
2023/10/18 02:54:24;;;;;;;18.98;12.43;;;8.30;99.90;;;;;;5033779;28;20115;-54
2023/10/18 02:56:50;;;;;;;22.13;13.63;;;8.30;99.90;;;;;;5033698;28;20561;-54
2023/10/18 02:59:24;;;;;;;18.02;11.88;;;8.20;99.90;;;;;;5033439;28;20038;-54
2023/10/18 03:01:57;;;;;;;15.70;12.18;;;8.10;99.90;;;;;;5033409;28;20033;-54
2023/10/18 03:04:26;;;;;;;18.27;12.45;;;8.10;99.90;;;;;;5033491;28;20151;-53
2023/10/18 03:06:55;;;;;;;17.08;12.55;;;8.10;99.90;;;;;;5033304;28;20040;-54
2023/10/18 03:09:34;;;;;;;19.00;13.25;;;8.10;99.90;;;;;;5033565;28;20088;-54
2023/10/18 03:12:01;;;;;;;16.83;11.90;;;8.10;99.90;;;;;;5033314;28;20541;-54
2023/10/18 03:14:39;;;;;;;19.65;12.93;;;8.10;99.90;;;;;;5033163;28;20470;-54
2023/10/18 03:17:22;;;;;;;15.55;12.90;;;8.10;99.90;;;;;;5033457;28;20041;-54
2023/10/18 03:19:50;;;;;;;17.20;12.45;;;8.10;99.90;;;;;;5033088;28;20103;-54
2023/10/18 03:22:19;;;;;;;18.67;13.65;;;8.10;99.90;;;;;;5032984;28;20125;-54
2023/10/18 03:24:50;;;;;;;17.48;13.85;;;8.10;99.90;;;;;;5032925;28;20384;-54
2023/10/18 03:27:16;;;;;;;17.08;13.45;;;8.10;99.90;;;;;;5032900;28;20029;-54
2023/10/18 03:29:43;;;;;;;16.75;12.95;;;8.10;99.90;;;;;;5032738;28;20079;-54
2023/10/18 03:32:19;;;;;;;17.13;12.45;;;8.00;99.90;;;;;;5032862;28;20029;-54
2023/10/18 03:34:45;;;;;;;16.02;11.75;;;7.90;99.90;;;;;;5032963;28;20461;-55
2023/10/18 03:37:26;;;;;;;17.75;13.52;;;7.90;99.90;;;;;;5032843;28;20025;-54
2023/10/18 03:39:53;;;;;;;19.05;13.18;;;7.80;99.90;;;;;;5032625;28;20025;-54
2023/10/18 03:42:31;;;;;;;18.58;14.32;;;7.90;99.90;;;;;;5014409;28;20489;-54
2023/10/18 03:45:13;;;;;;;22.52;14.25;;;7.90;99.90;;;;;;5032851;28;20076;-54
2023/10/18 03:47:39;;;;;;;18.83;14.48;;;7.90;99.90;;;;;;5032269;28;20033;-54
2023/10/18 03:50:15;;;;;;;18.77;15.30;;;7.80;99.90;;;;;;5032595;28;20094;-54
2023/10/18 03:52:41;;;;;;;19.17;15.55;;;7.80;99.90;;;;;;5032363;28;20029;-54
2023/10/18 03:55:17;;;;;;;23.00;15.02;;;7.90;99.90;;;;;;5013844;28;20038;-54
2023/10/18 03:57:43;;;;;;;21.15;15.50;;;7.90;99.90;;;;;;5032251;28;20041;-54
2023/10/18 04:02:52;;;;;;;19.15;15.93;;;7.90;99.90;;;;;;5015897;28;20068;-54
2023/10/18 04:05:33;;;;;;;28.88;16.92;;;8.00;99.90;;;;;;5014192;28;20041;-54
2023/10/18 04:07:59;;;;;;;25.73;15.38;;;8.00;99.90;;;;;;5030997;28;20043;-54
2023/10/18 04:10:24;;;;;;;23.70;17.52;;;8.00;99.90;;;;;;5032277;28;20029;-54
2023/10/18 04:12:51;;;;;;;22.67;17.25;;;8.00;99.90;;;;;;5032364;28;20113;-54
2023/10/18 04:15:28;;;;;;;22.45;17.63;;;8.10;99.90;;;;;;5032314;28;20096;-54
2023/10/18 04:20:36;;;;;;;23.17;18.10;;;8.10;99.90;;;;;;5032066;28;20048;-54
2023/10/18 04:23:35;;;;;;;26.45;19.63;;;8.10;99.90;;;;;;5032142;28;20025;-54
2023/10/18 04:25:57;;;;;;;29.23;18.40;;;8.00;99.90;;;;;;5014047;28;20041;-54
2023/10/18 04:28:24;;;;;;;26.98;19.80;;;8.10;99.90;;;;;;5032081;28;20476;-54
2023/10/18 04:31:04;;;;;;;29.60;20.27;;;8.10;99.90;;;;;;5031669;28;20117;-54
2023/10/18 04:33:41;;;;;;;32.20;21.88;;;8.10;99.90;;;;;;5031895;28;20037;-54
2023/10/18 04:36:11;;;;;;;31.65;20.30;;;7.80;99.90;;;;;;5031993;28;20037;-54
2023/10/18 04:38:47;;;;;;;34.83;24.83;;;7.20;99.90;;;;;;5031692;28;20017;-54
2023/10/18 04:46:29;;;;;;;24.02;17.95;;;6.20;99.90;;;;;;5032075;28;20033;-53
2023/10/18 04:51:28;;;;;;;22.17;16.50;;;;;;;;;;5031785;28;20122;-54
2023/10/18 04:53:59;;;;;;;22.05;15.45;;;;;;;;;;5031679;28;20030;-52
2023/10/18 04:56:34;;;;;;;22.98;16.20;;;4.90;99.90;;;;;;5031886;28;20036;-53
2023/10/18 04:59:11;;;;;;;22.00;15.40;;;4.50;99.90;;;;;;5031819;28;20400;-55
2023/10/18 05:01:41;;;;;;;22.92;14.98;;;4.50;99.90;;;;;;5031558;28;20544;-52
2023/10/18 05:04:20;;;;;;;24.25;16.40;;;4.30;99.90;;;;;;5031609;28;20119;-54
2023/10/18 05:06:56;;;;;;;23.60;17.63;;;4.30;99.90;;;;;;5031623;28;20481;-54
2023/10/18 05:09:32;;;;;;;22.45;15.45;;;4.30;99.90;;;;;;5031626;28;20029;-54
2023/10/18 05:14:44;;;;;;;26.77;18.58;;;4.20;99.90;;;;;;5009429;28;20037;-55
2023/10/18 05:17:10;;;;;;;27.77;20.73;;;4.40;99.90;;;;;;5009550;28;20034;-54
2023/10/18 05:19:43;;;;;;;43.75;24.70;;;4.80;99.90;;;;;;5009253;28;20054;-54
2023/10/18 05:22:09;;;;;;;51.97;28.88;;;5.00;99.90;;;;;;5009358;28;20056;-53
2023/10/18 05:24:40;;;;;;;31.98;25.70;;;5.10;99.90;;;;;;4976539;28;20466;-53
2023/10/18 05:27:19;;;;;;;30.20;23.75;;;5.30;99.90;;;;;;4993402;28;20521;-53
2023/10/18 05:29:52;;;;;;;27.45;22.15;;;5.50;99.90;;;;;;5009228;28;20042;-53
2023/10/18 05:37:51;;;;;;;26.23;19.88;;;5.80;99.90;;;;;;5009749;28;20394;-55
2023/10/18 05:43:38;;;;;;;26.92;17.65;;;7.30;99.90;;;;;;5012966;28;20120;-54
2023/10/18 05:46:03;;;;;;;26.95;16.73;;;7.70;99.90;;;;;;5024847;28;20044;-54
2023/10/18 05:48:32;;;;;;;30.40;19.15;;;8.20;99.90;;;;;;5034656;28;20140;-54
2023/10/18 05:51:25;;;;;;;35.97;24.63;;;8.90;99.90;;;;;;5034745;28;20417;-54
2023/10/18 05:53:50;;;;;;;38.95;28.85;;;9.40;99.90;;;;;;5041108;28;20048;-54
2023/10/18 05:56:15;;;;;;;30.10;22.85;;;10.20;99.90;;;;;;5054698;28;20116;-54
2023/10/18 05:58:41;;;;;;;23.63;18.20;;;11.00;99.90;;;;;;5054465;28;20114;-54
2023/10/18 06:01:07;;;;;;;21.33;17.23;;;11.60;99.90;;;;;;5054502;28;20545;-54
2023/10/18 06:03:39;;;;;;;20.67;16.70;;;12.80;99.90;;;;;;5054435;28;20037;-54
2023/10/18 06:06:08;;;;;;;17.38;14.65;;;;;;;;;;5054716;28;20111;-54
2023/10/18 06:08:34;;;;;;;20.15;16.30;;;;;;;;;;5054414;28;20021;-54
2023/10/18 06:11:06;;;;;;;17.30;13.93;;;;;;;;;;5054275;28;20468;-54
2023/10/18 06:13:35;;;;;;;18.10;13.27;;;;;;;;;;5054249;28;20100;-54
2023/10/18 06:16:18;;;;;;;17.27;13.48;;;;;;;;;;5054756;28;20028;-54
2023/10/18 06:18:45;;;;;;;16.35;13.23;;;;;;;;;;5054063;28;20385;-54
2023/10/18 06:21:18;;;;;;;17.45;12.52;;;;;;;;;;5054194;28;20032;-54
2023/10/18 06:23:54;;;;;;;23.00;16.83;;;;;;;;;;5054068;28;20033;-54
2023/10/18 06:26:33;;;;;;;25.50;18.23;;;;;;;;;;5054069;28;20029;-54
2023/10/18 06:29:00;;;;;;;26.20;19.65;;;;;;;;;;5053998;28;20033;-54
2023/10/18 06:31:30;;;;;;;18.48;15.75;;;;;;;;;;5054013;28;20534;-54
2023/10/18 06:33:59;;;;;;;21.35;14.63;;;;;;;;;;5053844;28;20021;-54
2023/10/18 06:36:25;;;;;;;24.75;15.43;;;;;;;;;;5054101;28;20372;-54
2023/10/18 06:38:52;;;;;;;20.25;15.77;;;;;;;;;;5052424;28;20036;-51
2023/10/18 06:41:18;;;;;;;17.88;15.77;;;;;;;;;;5053715;28;20025;-52
2023/10/18 06:43:45;;;;;;;18.27;15.93;;;;;;;;;;5053726;28;20037;-51
2023/10/18 06:46:28;;;;;;;17.13;14.07;;;25.10;91.00;;;;;;5053579;28;20029;-51
2023/10/18 06:48:57;;;;;;;18.63;15.27;;;;;;;;;;5053221;28;20548;-51
2023/10/18 06:54:14;;;;;;;17.73;14.45;;;26.00;90.50;;;;;;5053580;28;20043;-55
2023/10/18 06:56:47;;;;;;;26.98;20.60;;;;;;;;;;5052801;28;20025;-55
2023/10/18 06:59:14;;;;;;;22.10;19.15;;;26.70;89.00;;;;;;5053014;28;20029;-53
2023/10/18 07:01:58;;;;;;;22.70;17.35;;;;;;;;;;5053017;28;20392;-53
2023/10/18 07:04:38;;;;;;;25.63;20.33;;;;;;;;;;5052679;28;20040;-50
2023/10/18 07:07:19;;;;;;;26.77;22.83;;;27.70;88.00;;;;;;5052911;28;20036;-51
2023/10/18 07:09:45;;;;;;;30.77;23.35;;;;;;;;;;5052777;28;20111;-51
2023/10/18 07:12:12;;;;;;;24.13;19.73;;;;;;;;;;5052740;28;20336;-52
2023/10/18 07:14:39;;;;;;;20.70;17.23;;;;;;;;;;5051100;28;20082;-51
2023/10/18 07:17:09;;;;;;;22.95;19.73;;;;;;;;;;5052543;28;20021;-52
2023/10/18 07:19:48;;;;;;;23.35;19.05;;;;;;;;;;5052728;28;20045;-51
2023/10/18 07:22:21;;;;;;;20.73;18.45;;;;;;;;;;5052783;28;20029;-51
2023/10/18 07:24:53;;;;;;;27.15;22.25;;;;;;;;;;5052723;28;20058;-52
2023/10/18 07:27:20;;;;;;;20.63;16.38;;;;;;;;;;5052281;28;20040;-51
2023/10/18 07:29:48;;;;;;;19.88;16.63;;;;;;;;;;5052375;28;20450;-51
2023/10/18 07:32:14;;;;;;;15.82;14.00;;;;;;;;;;5052498;28;20488;-51
2023/10/18 07:34:42;;;;;;;16.45;14.15;;;;;;;;;;5052226;28;20033;-51
2023/10/18 07:37:17;;;;;;;46.60;37.38;;;30.60;99.90;;;;;;5052065;28;20037;-51
2023/10/18 07:39:56;;;;;;;33.17;28.40;;;30.30;82.20;;;;;;5049494;28;20060;-51
2023/10/18 07:42:26;;;;;;;18.88;16.85;;;30.00;81.70;;;;;;5052179;28;20135;-53
2023/10/18 07:44:53;;;;;;;20.45;18.15;;;29.90;81.10;;;;;;5052310;28;20062;-53
2023/10/18 07:47:25;;;;;;;18.38;14.27;;;29.40;81.70;;;;;;5051921;28;20037;-52
2023/10/18 07:49:51;;;;;;;17.30;15.48;;;;;;;;;;5051758;28;20060;-52
2023/10/18 07:52:17;;;;;;;18.65;14.80;;;;;;;;;;5052097;28;20025;-52
2023/10/18 07:54:43;;;;;;;18.35;14.23;;;;;;;;;;5052028;28;20033;-52
2023/10/18 07:57:15;;;;;;;18.95;14.98;;;;;;;;;;5051898;28;20082;-51
2023/10/18 07:59:47;;;;;;;20.67;15.98;;;29.70;99.90;;;;;;5033787;28;20048;-52
2023/10/18 08:02:32;;;;;;;19.67;17.48;;;29.30;80.10;;;;;;5048636;28;20389;-52
2023/10/18 08:05:00;;;;;;;33.42;21.15;;;29.80;80.40;;;;;;5049212;28;20037;-51
2023/10/18 08:07:29;;;;;;;20.88;17.55;;;;;;;;;;5049176;28;20083;-50
2023/10/18 08:09:58;;;;;;;21.00;17.20;;;;;;;;;;5049204;28;20058;-51
2023/10/18 08:14:50;;;;;;;20.75;16.65;;;30.10;93.80;;;;;;5049197;28;20094;-52
2023/10/18 08:22:46;;;;;;;25.95;18.67;;;29.90;78.70;;;;;;5049267;28;20059;-53
2023/10/18 08:25:21;;;;;;;22.00;16.73;;;30.00;77.80;;;;;;5008998;28;20104;-53
2023/10/18 08:27:51;;;;;;;22.73;16.65;;;29.80;78.10;;;;;;5009245;28;20046;-53
2023/10/18 08:33:05;;;;;;;18.92;16.48;;;29.70;77.40;;;;;;4981592;28;20057;-53
2023/10/18 08:35:32;;;;;;;22.63;17.08;;;27.90;77.50;;;;;;4960673;28;20037;-49
2023/10/18 08:38:01;;;;;;;21.20;16.38;;;29.20;78.70;;;;;;5009306;28;20061;-54
2023/10/18 08:40:27;;;;;;;20.67;17.92;;;;;;;;;;5008994;28;20048;-52
2023/10/18 08:43:06;;;;;;;27.45;19.70;;;30.00;93.00;;;;;;5009213;28;20524;-52
2023/10/18 08:45:36;;;;;;;24.73;20.92;;;29.90;77.60;;;;;;4992943;28;20057;-51
2023/10/18 08:48:10;;;;;;;22.92;19.15;;;30.00;77.60;;;;;;5025114;28;20076;-50
2023/10/18 08:50:40;;;;;;;24.83;19.42;;;29.20;77.70;;;;;;5012960;28;20566;-51
2023/10/18 08:53:07;;;;;;;22.20;18.10;;;;;;;;;;4989323;28;20046;-52
2023/10/18 08:55:45;;;;;;;22.90;18.90;;;29.00;77.70;;;;;;4989782;28;20414;-50
2023/10/18 08:58:17;;;;;;;22.08;19.73;;;28.20;77.00;;;;;;4957435;28;20134;-51
2023/10/18 09:03:14;;;;;;;26.17;19.35;;;28.10;79.40;;;;;;5018437;28;20393;-51
2023/10/18 09:05:41;;;;;;;25.60;19.90;;;;;;;;;;5029102;28;20046;-51
2023/10/18 09:08:14;;;;;;;25.27;19.52;;;;;;;;;;5029248;28;20736;-51
2023/10/18 09:16:01;;;;;;;25.88;19.80;;;29.00;82.70;;;;;;5033073;28;20053;-51
2023/10/18 09:18:31;;;;;;;23.42;19.08;;;28.60;77.90;;;;;;5032850;28;20120;-52
2023/10/18 09:21:17;;;;;;;23.48;20.80;;;27.90;78.70;;;;;;5032990;28;20041;-51
2023/10/18 09:23:44;;;;;;;25.00;19.80;;;28.30;77.40;;;;;;5040443;28;20059;-50
2023/10/18 09:26:12;;;;;;;26.73;22.45;;;;;;;;;;5055092;28;20115;-51
2023/10/18 09:28:41;;;;;;;25.10;21.05;;;28.90;78.10;;;;;;5055510;28;20060;-51
2023/10/18 09:31:12;;;;;;;32.03;22.15;;;29.20;78.30;;;;;;5059026;28;20107;-50
2023/10/18 09:33:49;;;;;;;30.10;24.95;;;;;;;;;;5072658;28;20059;-51
2023/10/18 09:36:25;;;;;;;25.33;21.08;;;29.00;77.50;;;;;;5074916;28;20078;-50
2023/10/18 09:38:52;;;;;;;28.42;21.48;;;;;;;;;;5034931;28;20389;-50
2023/10/18 09:41:19;;;;;;;26.48;20.77;;;;;;;;;;5035176;28;20029;-51
2023/10/18 09:43:46;;;;;;;25.98;21.42;;;28.90;78.00;;;;;;5034777;28;20481;-52
2023/10/18 09:46:13;;;;;;;21.10;17.35;;;;;;;;;;5035016;28;20091;-52
2023/10/18 09:48:44;;;;;;;19.83;17.45;;;27.90;77.20;;;;;;5034592;28;20053;-52
2023/10/18 09:51:14;;;;;;;20.87;18.67;;;27.90;78.60;;;;;;5034830;28;20037;-52
2023/10/18 09:53:49;;;;;;;21.58;18.45;;;28.00;79.20;;;;;;5034647;28;20392;-50
2023/10/18 09:56:33;;;;;;;22.23;18.52;;;28.10;78.00;;;;;;5034844;28;20044;-50
2023/10/18 09:59:08;;;;;;;21.25;18.92;;;;;;;;;;5034583;28;20037;-50
2023/10/18 10:04:13;;;;;;;22.08;17.80;;;27.80;99.90;;;;;;5034796;28;20559;-50
2023/10/18 10:06:46;;;;;;;20.83;16.70;;;26.60;78.40;;;;;;5034771;28;20033;-50
2023/10/18 10:09:13;;;;;;;19.90;17.75;;;27.80;79.60;;;;;;5034433;28;20026;-50
2023/10/18 10:11:44;;;;;;;20.60;16.85;;;28.00;78.40;;;;;;5034348;28;20044;-50
2023/10/18 10:14:17;;;;;;;18.63;15.57;;;;;;;;;;5015676;28;20129;-50
2023/10/18 10:17:00;;;;;;;17.88;15.82;;;26.30;82.60;;;;;;5034173;28;20034;-50
2023/10/18 10:19:29;;;;;;;20.67;15.43;;;27.30;77.70;;;;;;5034176;28;20120;-50
2023/10/18 10:22:04;;;;;;;19.50;15.02;;;;;;;;;;5034398;28;20366;-50
2023/10/18 10:24:33;;;;;;;17.17;14.18;;;;;;;;;;5033261;28;20095;-50
2023/10/18 10:29:56;;;;;;;15.82;13.43;;;;;;;;;;5034409;28;20103;-50
2023/10/18 10:32:28;;;;;;;15.75;13.82;;;27.10;92.70;;;;;;5033934;28;20132;-50
2023/10/18 10:35:14;;;;;;;15.73;13.32;;;;;;;;;;5033811;28;20060;-50
2023/10/18 10:37:54;;;;;;;15.30;12.95;;;27.60;78.30;;;;;;5034149;28;20033;-50
2023/10/18 10:43:01;;;;;;;18.05;13.68;;;;;;;;;;5033763;28;20103;-50
2023/10/18 10:48:16;;;;;;;15.07;13.48;;;;;;;;;;4987706;28;20076;-50
2023/10/18 10:50:50;;;;;;;14.82;13.32;;;27.80;82.40;;;;;;5033583;28;20047;-51
2023/10/18 10:53:36;;;;;;;14.90;13.35;;;28.20;98.90;;;;;;5033675;28;20164;-50
2023/10/18 10:56:17;;;;;;;18.27;14.25;;;28.10;78.90;;;;;;5033548;28;20044;-50
2023/10/18 10:59:02;;;;;;;19.67;14.77;;;28.20;78.50;;;;;;4998300;28;20095;-52
2023/10/18 11:01:43;;;;;;;16.02;14.27;;;26.60;78.60;;;;;;5033475;28;20110;-49
2023/10/18 11:04:24;;;;;;;15.95;14.27;;;27.00;79.60;;;;;;5056057;28;20040;-51
2023/10/18 11:06:56;;;;;;;19.42;14.88;;;;;;;;;;5052574;28;20087;-51
2023/10/18 11:09:27;;;;;;;;;;;27.70;78.10;;;;;;5053717;28;20380;-52
2023/10/18 11:11:58;;;;;;;16.17;14.02;;;26.90;78.40;;;;;;5049233;28;19909;-50
2023/10/18 11:14:27;;;;;;;15.52;12.77;;;;;;;;;;5002068;28;20080;-50
2023/10/18 11:17:23;;;;;;;16.35;13.10;;;;;;;;;;5052356;28;20104;-51
2023/10/18 11:19:59;;;;;;;15.63;13.35;;;27.00;95.90;;;;;;5050439;28;20048;-50
2023/10/18 11:22:29;;;;;;;17.35;14.13;;;;;;;;;;5051404;28;20041;-50
2023/10/18 11:24:56;;;;;;;16.20;13.90;;;;;;;;;;5053110;28;20037;-50
2023/10/18 11:27:26;;;;;;;20.98;15.55;;;25.90;80.40;;;;;;5052907;28;20606;-50
2023/10/18 11:30:15;;;;;;;16.25;13.55;;;25.80;80.00;;;;;;5052649;28;20025;-51
2023/10/18 11:32:48;;;;;;;16.92;14.13;;;25.60;80.30;;;;;;5052761;28;20029;-50
2023/10/18 11:35:37;;;;;;;18.08;14.48;;;;;;;;;;5052262;28;20032;-50
2023/10/18 11:38:03;;;;;;;16.23;13.25;;;26.30;85.80;;;;;;5052534;28;20120;-51
2023/10/18 11:40:32;;;;;;;13.63;12.25;;;26.30;85.20;;;;;;5052603;28;20192;-50
2023/10/18 11:43:05;;;;;;;13.73;12.15;;;;;;;;;;5002411;28;20404;-50
2023/10/18 11:45:32;;;;;;;19.35;14.07;;;24.80;80.10;;;;;;5052531;28;20033;-51
2023/10/18 11:48:02;;;;;;;15.18;13.40;;;25.40;82.60;;;;;;5052631;28;20057;-50
2023/10/18 11:50:48;;;;;;;14.75;11.80;;;25.60;84.00;;;;;;5052569;28;20032;-51
2023/10/18 11:53:20;;;;;;;17.90;12.00;;;25.30;81.30;;;;;;5051613;28;20035;-50
2023/10/18 11:55:59;;;;;;;17.95;13.02;;;25.50;81.30;;;;;;5052001;28;20082;-52
2023/10/18 11:58:27;;;;;;;14.73;12.30;;;25.60;81.30;;;;;;5017005;28;20049;-52
2023/10/18 12:01:05;;;;;;;13.82;12.40;;;25.50;81.20;;;;;;5052137;28;20048;-49
2023/10/18 12:03:33;;;;;;;13.27;11.80;;;26.10;85.90;;;;;;5052201;28;20076;-52
2023/10/18 12:06:00;;;;;;;16.65;12.27;;;26.20;87.80;;;;;;5052368;28;20488;-52
2023/10/18 12:08:33;;;;;;;14.63;11.30;;;26.30;85.30;;;;;;5052252;28;20037;-50
2023/10/18 12:11:08;;;;;;;11.60;10.45;;;26.00;84.60;;;;;;5051990;28;20036;-52
2023/10/18 12:13:35;;;;;;;14.70;10.48;;;25.30;81.30;;;;;;5051979;28;20484;-50
2023/10/18 12:16:00;;;;;;;22.02;16.13;;;25.10;82.70;;;;;;5000393;28;20066;-52
2023/10/18 12:18:29;;;;;;;14.73;11.00;;;24.70;81.50;;;;;;5052040;28;20389;-50
2023/10/18 12:20:56;;;;;;;13.55;10.23;;;24.70;82.50;;;;;;5052290;28;20045;-52
2023/10/18 12:23:22;;;;;;;16.50;11.40;;;25.20;82.90;;;;;;5052153;28;20033;-51
2023/10/18 12:25:48;;;;;;;14.68;10.73;;;24.80;83.00;;;;;;5051815;28;20107;-52
2023/10/18 12:28:27;;;;;;;12.45;10.65;;;25.00;82.10;;;;;;5051986;28;20083;-50
2023/10/18 12:30:55;;;;;;;15.70;11.05;;;;;;;;;;5051832;28;20087;-51
2023/10/18 12:33:27;;;;;;;11.23;9.32;;;24.40;82.10;;;;;;5051896;28;20040;-52
2023/10/18 12:35:59;;;;;;;12.63;9.93;;;24.70;86.10;;;;;;5051755;28;20036;-51
2023/10/18 12:38:31;;;;;;;13.43;10.18;;;25.00;83.70;;;;;;5052193;28;20041;-52
2023/10/18 12:40:59;;;;;;;15.13;11.18;;;25.10;91.40;;;;;;5051694;28;20520;-52
2023/10/18 12:43:38;;;;;;;15.95;11.65;;;25.00;90.60;;;;;;5051764;28;20037;-52
2023/10/18 12:46:06;;;;;;;13.77;11.57;;;24.90;84.60;;;;;;5051674;28;20062;-53
2023/10/18 12:48:31;;;;;;;13.57;10.68;;;24.10;83.10;;;;;;5054828;28;20045;-52
2023/10/18 12:50:59;;;;;;;15.18;11.57;;;23.90;84.70;;;;;;5055781;28;20106;-52
2023/10/18 12:55:57;;;;;;;16.45;11.80;;;23.50;84.30;;;;;;5054833;28;20068;-50
2023/10/18 12:58:30;;;;;;;13.65;10.73;;;23.40;84.60;;;;;;5055469;28;20029;-52
2023/10/18 13:01:05;;;;;;;14.23;10.98;;;23.70;86.00;;;;;;5055650;28;20076;-52
2023/10/18 13:03:38;;;;;;;13.68;11.05;;;23.80;85.20;;;;;;5055840;28;20040;-52
2023/10/18 13:06:15;;;;;;;13.23;11.20;;;23.40;85.50;;;;;;5055447;28;20029;-51
2023/10/18 13:09:05;;;;;;;14.80;11.05;;;23.50;86.10;;;;;;5011945;28;20048;-50
2023/10/18 13:14:05;;;;;;;15.50;11.20;;;23.60;86.50;;;;;;5012278;28;20073;-52
2023/10/18 13:16:31;;;;;;;13.55;11.13;;;23.10;85.50;;;;;;4979668;28;20042;-52
2023/10/18 13:18:57;;;;;;;16.83;11.18;;;22.70;86.50;;;;;;5011899;28;20072;-51
2023/10/18 13:21:30;;;;;;;15.98;11.27;;;;;;;;;;5012147;28;20037;-52
2023/10/18 13:24:16;;;;;;;13.77;10.82;;;22.40;86.40;;;;;;5011873;28;20050;-51
2023/10/18 13:26:43;;;;;;;13.32;11.30;;;22.90;87.30;;;;;;5010808;28;20065;-52
2023/10/18 13:29:29;;;;;;;16.35;10.63;;;22.80;87.90;;;;;;5011545;28;20056;-50
2023/10/18 13:31:59;;;;;;;14.88;10.75;;;22.70;86.30;;;;;;5011197;28;20445;-50
2023/10/18 13:34:39;;;;;;;16.60;11.38;;;23.00;88.00;;;;;;5011764;28;20620;-50
2023/10/18 13:37:10;;;;;;;17.40;10.82;;;23.00;86.70;;;;;;5011001;28;20061;-51
2023/10/18 13:39:39;;;;;;;16.10;10.70;;;23.00;88.30;;;;;;5023110;28;20045;-53
2023/10/18 13:42:05;;;;;;;14.48;10.75;;;22.60;86.60;;;;;;5033888;28;20034;-51
2023/10/18 13:44:31;;;;;;;17.15;12.95;;;22.90;87.90;;;;;;4998811;28;20038;-52
2023/10/18 13:47:00;;;;;;;15.73;11.38;;;23.10;87.30;;;;;;5015019;28;20044;-51
2023/10/18 13:49:27;;;;;;;13.90;10.20;;;22.70;87.00;;;;;;5033751;28;20432;-51
2023/10/18 13:51:53;;;;;;;17.98;10.90;;;;;;;;;;5033952;28;20461;-55
2023/10/18 13:54:20;;;;;;;13.30;10.68;;;;;;;;;;5033658;28;20033;-52
2023/10/18 13:56:47;;;;;;;14.75;11.00;;;22.50;87.70;;;;;;5033677;28;20056;-54
2023/10/18 13:59:15;;;;;;;18.83;11.68;;;22.40;88.50;;;;;;5032370;28;20033;-54
2023/10/18 14:01:42;;;;;;;13.60;10.57;;;22.30;92.10;;;;;;4998290;28;20496;-54
2023/10/18 14:04:13;;;;;;;14.45;10.73;;;;;;;;;;5033515;28;20033;-52
2023/10/18 14:06:40;;;;;;;13.10;10.88;;;22.10;93.50;;;;;;5033511;28;20064;-55
2023/10/18 14:09:10;;;;;;;16.42;11.50;;;22.20;88.90;;;;;;5033441;28;20055;-54
2023/10/18 14:11:39;;;;;;;16.58;14.25;;;22.20;88.70;;;;;;4999695;28;20103;-52
2023/10/18 14:14:23;;;;;;;13.15;10.65;;;21.90;88.10;;;;;;5011717;28;20046;-53
2023/10/18 14:16:49;;;;;;;16.98;11.20;;;22.00;89.30;;;;;;4995537;28;20057;-54
2023/10/18 14:19:19;;;;;;;15.35;10.52;;;22.20;89.00;;;;;;5011844;28;20039;-52
2023/10/18 14:21:48;;;;;;;16.60;10.95;;;22.30;88.90;;;;;;4996074;28;20042;-53
2023/10/18 14:24:16;;;;;;;20.67;13.73;;;21.80;88.20;;;;;;5011796;28;20042;-53
2023/10/18 14:26:43;;;;;;;13.82;11.27;;;;;;;;;;4995691;28;20038;-51
2023/10/18 14:29:11;;;;;;;16.00;11.02;;;21.90;95.70;;;;;;5011735;28;20037;-54